createdAt,value
2018-05-06T00:01:29.024Z,66.74
2018-05-06T00:03:54.755Z,66.91
2018-05-06T00:06:20.511Z,66.90
2018-05-06T00:08:46.283Z,67.15
2018-05-06T00:11:12.088Z,67.25
2018-05-06T00:13:37.851Z,67.57
2018-05-06T00:16:03.634Z,67.67
2018-05-06T00:18:29.403Z,67.86
2018-05-06T00:20:55.162Z,67.92
2018-05-06T00:23:20.942Z,67.92
2018-05-06T00:25:47.028Z,67.68
2018-05-06T00:28:12.852Z,67.77
2018-05-06T00:30:38.637Z,67.79
2018-05-06T00:33:04.429Z,67.99
2018-05-06T00:35:30.219Z,68.26
2018-05-06T00:37:55.971Z,68.50
2018-05-06T00:40:21.732Z,68.56
2018-05-06T00:42:47.612Z,68.88
2018-05-06T00:45:13.396Z,68.92
2018-05-06T00:47:39.137Z,69.11
2018-05-06T00:50:05.033Z,69.23
2018-05-06T00:52:30.804Z,69.24
2018-05-06T00:54:56.572Z,69.17
2018-05-06T00:57:22.327Z,69.19
2018-05-06T00:59:48.079Z,69.27
2018-05-06T01:02:13.868Z,69.43
2018-05-06T01:04:39.606Z,69.49
2018-05-06T01:07:05.539Z,69.50
2018-05-06T01:09:31.315Z,69.69
2018-05-06T01:11:57.068Z,69.84
2018-05-06T01:14:22.844Z,69.98
2018-05-06T01:16:48.593Z,70.07
2018-05-06T01:19:14.388Z,70.20
2018-05-06T01:21:40.134Z,70.27
2018-05-06T01:24:05.918Z,70.37
2018-05-06T01:26:31.665Z,70.53
2018-05-06T01:28:57.443Z,70.55
2018-05-06T01:31:23.207Z,70.70
2018-05-06T01:33:48.990Z,70.74
2018-05-06T01:36:14.737Z,70.58
2018-05-06T01:38:40.538Z,70.66
2018-05-06T01:41:06.323Z,70.62
2018-05-06T01:43:32.086Z,70.72
2018-05-06T01:45:57.851Z,70.80
2018-05-06T01:48:23.622Z,70.79
2018-05-06T01:50:49.379Z,71.12
2018-05-06T01:53:15.131Z,71.33
2018-05-06T01:55:40.904Z,71.31
2018-05-06T01:58:06.674Z,71.50
2018-05-06T02:00:32.440Z,71.58
2018-05-06T02:02:58.203Z,71.62
2018-05-06T02:05:23.977Z,71.80
2018-05-06T02:07:49.736Z,71.97
2018-05-06T02:10:15.498Z,71.97
2018-05-06T02:12:41.305Z,71.83
2018-05-06T02:15:07.063Z,71.78
2018-05-06T02:17:32.803Z,71.88
2018-05-06T02:19:58.617Z,71.97
2018-05-06T02:22:24.379Z,72.17
2018-05-06T02:24:50.194Z,72.21
2018-05-06T02:27:15.939Z,72.37
2018-05-06T02:29:41.731Z,72.40
2018-05-06T02:32:07.514Z,72.44
2018-05-06T02:34:33.331Z,72.43
2018-05-06T02:36:59.107Z,72.33
2018-05-06T02:39:25.315Z,72.30
2018-05-06T02:41:51.138Z,72.22
2018-05-06T02:44:16.876Z,72.20
2018-05-06T02:46:42.660Z,72.41
2018-05-06T02:49:08.436Z,72.54
2018-05-06T02:51:34.525Z,72.65
2018-05-06T02:54:00.316Z,72.78
2018-05-06T02:56:26.084Z,72.99
2018-05-06T02:58:51.831Z,73.00
2018-05-06T03:01:17.603Z,73.11
2018-05-06T03:03:43.355Z,73.14
2018-05-06T03:06:09.171Z,73.16
2018-05-06T03:08:34.932Z,73.15
2018-05-06T03:11:00.740Z,73.21
2018-05-06T03:13:26.503Z,73.26
2018-05-06T03:15:52.398Z,73.29
2018-05-06T03:18:18.164Z,73.38
2018-05-06T03:20:44.076Z,73.45
2018-05-06T03:23:09.824Z,73.59
2018-05-06T03:25:35.611Z,73.69
2018-05-06T03:28:01.360Z,73.73
2018-05-06T03:30:27.108Z,73.75
2018-05-06T03:32:52.933Z,73.77
2018-05-06T03:35:18.675Z,73.91
2018-05-06T03:37:44.438Z,73.95
2018-05-06T03:40:10.187Z,73.88
2018-05-06T03:42:35.964Z,74.05
2018-05-06T03:45:01.727Z,74.12
2018-05-06T03:47:27.479Z,74.22
2018-05-06T03:49:53.252Z,74.16
2018-05-06T03:52:19.178Z,74.12
2018-05-06T03:54:44.943Z,74.10
2018-05-06T03:57:23.167Z,74.17
2018-05-06T04:00:01.280Z,74.36
2018-05-06T04:02:29.959Z,74.31
2018-05-06T04:04:55.724Z,74.48
2018-05-06T04:07:21.503Z,74.48
2018-05-06T04:09:48.039Z,74.22
2018-05-06T04:12:13.795Z,74.41
2018-05-06T04:14:39.566Z,74.34
2018-05-06T04:17:05.321Z,74.23
2018-05-06T04:19:31.107Z,74.28
2018-05-06T04:21:56.878Z,74.25
2018-05-06T04:24:22.620Z,74.01
2018-05-06T04:26:48.591Z,73.95
2018-05-06T04:29:14.340Z,73.79
2018-05-06T04:31:40.133Z,73.69
2018-05-06T04:34:05.916Z,73.50
2018-05-06T04:36:31.710Z,73.17
2018-05-06T04:38:57.456Z,72.98
2018-05-06T04:41:23.231Z,72.86
2018-05-06T04:43:49.008Z,72.62
2018-05-06T04:46:14.764Z,72.43
2018-05-06T04:48:40.504Z,72.25
2018-05-06T04:51:06.576Z,72.02
2018-05-06T04:53:32.347Z,71.86
2018-05-06T04:55:58.094Z,71.66
2018-05-06T04:58:23.883Z,71.44
2018-05-06T05:00:49.724Z,71.18
2018-05-06T05:03:15.488Z,70.91
2018-05-06T05:05:41.275Z,70.45
2018-05-06T05:08:07.079Z,70.05
2018-05-06T05:10:32.859Z,69.85
2018-05-06T05:12:58.595Z,69.43
2018-05-06T05:15:24.368Z,69.11
2018-05-06T05:17:50.160Z,68.71
2018-05-06T05:20:15.923Z,68.36
2018-05-06T05:22:41.740Z,68.06
2018-05-06T05:25:07.489Z,67.60
2018-05-06T05:27:33.271Z,67.17
2018-05-06T05:29:59.004Z,66.61
2018-05-06T05:32:24.787Z,66.50
2018-05-06T05:34:50.563Z,66.19
2018-05-06T05:37:16.330Z,66.07
2018-05-06T05:39:42.088Z,65.74
2018-05-06T05:42:07.834Z,65.58
2018-05-06T05:44:33.599Z,65.36
2018-05-06T05:46:59.395Z,65.05
2018-05-06T05:49:25.148Z,65.11
2018-05-06T05:51:50.904Z,64.68
2018-05-06T05:54:16.687Z,64.20
2018-05-06T05:56:42.455Z,63.89
2018-05-06T05:59:08.323Z,63.56
2018-05-06T06:01:34.146Z,63.12
2018-05-06T06:03:59.905Z,63.18
2018-05-06T06:06:25.668Z,63.82
2018-05-06T06:08:51.470Z,63.30
2018-05-06T06:11:17.211Z,63.04
2018-05-06T06:13:42.967Z,62.51
2018-05-06T06:16:08.741Z,61.96
2018-05-06T06:18:41.372Z,61.64
2018-05-06T06:21:07.131Z,61.58
2018-05-06T06:23:32.909Z,60.97
2018-05-06T06:25:58.655Z,61.08
2018-05-06T06:28:24.494Z,60.50
2018-05-06T06:30:50.255Z,60.59
2018-05-06T06:33:16.372Z,60.22
2018-05-06T06:35:42.163Z,59.92
2018-05-06T06:38:07.928Z,59.62
2018-05-06T06:40:33.698Z,59.36
2018-05-06T06:42:59.548Z,59.01
2018-05-06T06:45:25.302Z,58.73
2018-05-06T06:47:51.133Z,58.64
2018-05-06T06:50:16.958Z,58.42
2018-05-06T06:52:42.711Z,58.28
2018-05-06T06:55:08.459Z,57.81
2018-05-06T06:57:34.496Z,56.57
2018-05-06T07:00:00.656Z,56.90
2018-05-06T07:02:26.481Z,56.74
2018-05-06T07:04:52.192Z,56.98
2018-05-06T07:07:17.996Z,56.80
2018-05-06T07:09:43.740Z,56.53
2018-05-06T07:12:09.508Z,56.24
2018-05-06T07:14:35.319Z,55.93
2018-05-06T07:17:01.089Z,55.92
2018-05-06T07:19:26.867Z,55.61
2018-05-06T07:21:52.647Z,55.53
2018-05-06T07:24:18.391Z,55.50
2018-05-06T07:26:44.153Z,55.24
2018-05-06T07:29:09.919Z,54.73
2018-05-06T07:31:35.672Z,54.52
2018-05-06T07:34:01.468Z,54.17
2018-05-06T07:36:27.295Z,54.31
2018-05-06T07:38:53.040Z,53.95
2018-05-06T07:41:18.811Z,53.82
2018-05-06T07:43:44.575Z,53.94
2018-05-06T07:46:10.348Z,53.94
2018-05-06T07:48:36.099Z,53.54
2018-05-06T07:51:02.104Z,53.15
2018-05-06T07:53:27.851Z,53.16
2018-05-06T07:55:53.619Z,53.15
2018-05-06T07:58:19.592Z,51.79
2018-05-06T08:00:45.391Z,51.62
2018-05-06T08:03:11.171Z,52.20
2018-05-06T08:05:36.907Z,51.88
2018-05-06T08:08:02.671Z,51.97
2018-05-06T08:10:28.416Z,51.78
2018-05-06T08:12:54.191Z,51.27
2018-05-06T08:15:19.936Z,50.47
2018-05-06T08:17:45.731Z,50.43
2018-05-06T08:20:11.480Z,50.53
2018-05-06T08:22:38.309Z,50.56
2018-05-06T08:25:04.356Z,50.02
2018-05-06T08:27:30.121Z,50.42
2018-05-06T08:29:55.891Z,50.58
2018-05-06T08:32:21.650Z,50.42
2018-05-06T08:34:47.451Z,49.85
2018-05-06T08:37:13.352Z,49.83
2018-05-06T08:39:39.115Z,49.48
2018-05-06T08:42:04.867Z,49.62
2018-05-06T08:44:30.607Z,49.07
2018-05-06T08:46:56.382Z,48.71
2018-05-06T08:49:22.143Z,49.13
2018-05-06T08:51:47.913Z,48.54
2018-05-06T08:54:13.660Z,48.31
2018-05-06T08:56:39.431Z,47.84
2018-05-06T08:59:05.403Z,47.37
2018-05-06T09:01:31.172Z,46.46
2018-05-06T09:03:56.919Z,46.97
2018-05-06T09:06:22.691Z,46.09
2018-05-06T09:08:48.448Z,45.66
2018-05-06T09:11:14.263Z,45.21
2018-05-06T09:13:39.979Z,44.73
2018-05-06T09:16:05.791Z,44.34
2018-05-06T09:18:31.576Z,44.49
2018-05-06T09:20:57.358Z,44.20
2018-05-06T09:23:23.102Z,44.11
2018-05-06T09:25:49.122Z,43.88
2018-05-06T09:28:14.888Z,43.85
2018-05-06T09:30:40.679Z,43.18
2018-05-06T09:33:06.436Z,43.21
2018-05-06T09:35:32.224Z,43.49
2018-05-06T09:37:57.983Z,43.14
2018-05-06T09:40:23.743Z,42.61
2018-05-06T09:42:49.515Z,42.97
2018-05-06T09:45:15.314Z,43.33
2018-05-06T09:47:41.147Z,43.04
2018-05-06T09:50:06.831Z,43.00
2018-05-06T09:52:32.628Z,42.37
2018-05-06T09:54:58.387Z,42.67
2018-05-06T09:57:24.163Z,42.48
2018-05-06T09:59:49.980Z,42.13
2018-05-06T10:02:15.754Z,41.06
2018-05-06T10:04:41.515Z,40.84
2018-05-06T10:07:07.290Z,41.27
2018-05-06T10:09:33.071Z,41.48
2018-05-06T10:11:58.864Z,41.58
2018-05-06T10:14:24.624Z,40.66
2018-05-06T10:16:50.411Z,39.52
2018-05-06T10:19:16.168Z,39.83
2018-05-06T10:21:41.947Z,38.79
2018-05-06T10:24:07.721Z,38.92
2018-05-06T10:26:33.501Z,39.48
2018-05-06T10:28:59.252Z,39.11
2018-05-06T10:31:25.037Z,39.01
2018-05-06T10:33:50.803Z,38.70
2018-05-06T10:36:16.952Z,38.81
2018-05-06T10:38:42.694Z,38.11
2018-05-06T10:41:08.887Z,38.18
2018-05-06T10:43:34.703Z,38.03
2018-05-06T10:46:00.463Z,36.10
2018-05-06T10:48:26.288Z,36.95
2018-05-06T10:50:52.035Z,35.80
2018-05-06T10:53:17.828Z,36.06
2018-05-06T10:55:43.577Z,36.11
2018-05-06T10:58:09.360Z,36.01
2018-05-06T11:00:35.347Z,35.42
2018-05-06T11:03:01.132Z,34.94
2018-05-06T11:05:26.875Z,34.65
2018-05-06T11:07:52.631Z,33.76
2018-05-06T11:10:18.425Z,34.06
2018-05-06T11:12:44.223Z,34.46
2018-05-06T11:15:09.987Z,34.59
2018-05-06T11:17:35.758Z,34.46
2018-05-06T11:20:01.503Z,34.35
2018-05-06T11:22:27.504Z,34.21
2018-05-06T11:24:53.248Z,33.89
2018-05-06T11:27:19.028Z,34.81
2018-05-06T11:29:44.779Z,34.86
2018-05-06T11:32:10.558Z,35.41
2018-05-06T11:34:36.316Z,34.70
2018-05-06T11:37:02.103Z,34.62
2018-05-06T11:39:27.855Z,34.84
2018-05-06T11:41:53.651Z,35.07
2018-05-06T11:44:19.387Z,34.91
2018-05-06T11:46:45.134Z,34.81
2018-05-06T11:49:10.932Z,35.07
2018-05-06T11:51:36.684Z,34.53
2018-05-06T11:54:02.464Z,34.55
2018-05-06T11:56:28.214Z,34.61
2018-05-06T11:58:54.062Z,34.05
2018-05-06T12:01:19.830Z,35.15
2018-05-06T12:03:45.626Z,34.82
2018-05-06T12:06:11.376Z,35.07
2018-05-06T12:08:37.157Z,34.86
2018-05-06T12:11:02.931Z,34.92
2018-05-06T12:13:28.723Z,35.28
2018-05-06T12:15:54.493Z,35.03
2018-05-06T12:18:20.287Z,35.46
2018-05-06T12:20:46.027Z,35.14
2018-05-06T12:23:11.823Z,35.34
2018-05-06T12:25:37.569Z,35.81
2018-05-06T12:28:03.339Z,35.43
2018-05-06T12:30:29.099Z,35.74
2018-05-06T12:32:54.876Z,36.40
2018-05-06T12:35:20.715Z,36.38
2018-05-06T12:37:46.499Z,36.50
2018-05-06T12:40:12.249Z,36.15
2018-05-06T12:42:38.031Z,36.44
2018-05-06T12:45:03.793Z,36.27
2018-05-06T12:47:29.591Z,36.34
2018-05-06T12:49:55.371Z,35.83
2018-05-06T12:52:21.144Z,36.87
2018-05-06T12:54:46.943Z,36.24
2018-05-06T12:57:12.704Z,36.58
2018-05-06T12:59:38.528Z,36.73
2018-05-06T13:02:04.274Z,36.70
2018-05-06T13:04:30.021Z,37.53
2018-05-06T13:06:55.780Z,36.55
2018-05-06T13:09:21.555Z,36.14
2018-05-06T13:11:47.305Z,36.59
2018-05-06T13:14:13.108Z,36.75
2018-05-06T13:16:38.846Z,36.26
2018-05-06T13:19:04.867Z,35.44
2018-05-06T13:21:30.613Z,35.44
2018-05-06T13:23:56.606Z,35.89
2018-05-06T13:26:22.383Z,35.85
2018-05-06T13:28:48.451Z,35.20
2018-05-06T13:31:14.249Z,35.32
2018-05-06T13:33:40.031Z,35.46
2018-05-06T13:36:05.830Z,35.59
2018-05-06T13:38:31.636Z,35.35
2018-05-06T13:40:57.463Z,35.19
2018-05-06T13:43:23.232Z,35.96
2018-05-06T13:45:48.998Z,35.41
2018-05-06T13:48:14.775Z,35.32
2018-05-06T13:50:40.528Z,35.37
2018-05-06T13:53:06.278Z,35.51
2018-05-06T13:55:32.102Z,34.98
2018-05-06T13:57:57.798Z,35.39
2018-05-06T14:00:23.587Z,34.76
2018-05-06T14:02:49.333Z,34.70
2018-05-06T14:05:15.254Z,34.85
2018-05-06T14:07:41.015Z,35.51
2018-05-06T14:10:06.775Z,35.11
2018-05-06T14:12:32.523Z,35.95
2018-05-06T14:14:58.280Z,34.70
2018-05-06T14:17:24.023Z,34.91
2018-05-06T14:19:49.788Z,35.46
2018-05-06T14:22:15.548Z,35.30
2018-05-06T14:24:41.359Z,35.59
2018-05-06T14:27:07.117Z,35.31
2018-05-06T14:29:32.904Z,34.49
2018-05-06T14:31:58.651Z,35.25
2018-05-06T14:34:24.411Z,35.39
2018-05-06T14:36:50.185Z,35.01
2018-05-06T14:39:15.980Z,34.75
2018-05-06T14:41:41.723Z,34.78
2018-05-06T14:44:07.540Z,35.14
2018-05-06T14:46:45.706Z,35.35
2018-05-06T14:49:11.468Z,35.55
2018-05-06T14:51:37.351Z,35.92
2018-05-06T14:54:03.087Z,35.64
2018-05-06T14:56:28.888Z,34.89
2018-05-06T14:58:54.638Z,34.99
2018-05-06T15:01:20.416Z,34.97
2018-05-06T15:03:46.292Z,35.49
2018-05-06T15:06:11.969Z,35.50
2018-05-06T15:08:37.748Z,35.31
2018-05-06T15:11:03.520Z,34.99
2018-05-06T15:13:29.291Z,35.52
2018-05-06T15:15:55.044Z,36.03
2018-05-06T15:18:20.823Z,35.76
2018-05-06T15:20:46.627Z,34.90
2018-05-06T15:23:12.387Z,34.88
2018-05-06T15:25:38.179Z,35.06
2018-05-06T15:28:03.938Z,35.05
2018-05-06T15:30:29.735Z,35.32
2018-05-06T15:32:55.492Z,35.71
2018-05-06T15:35:21.280Z,36.10
2018-05-06T15:37:47.039Z,36.35
2018-05-06T15:40:12.803Z,36.17
2018-05-06T15:42:38.546Z,35.92
2018-05-06T15:45:04.323Z,36.28
2018-05-06T15:47:30.077Z,36.41
2018-05-06T15:49:55.835Z,36.68
2018-05-06T15:52:21.597Z,36.69
2018-05-06T15:54:47.416Z,36.65
2018-05-06T15:57:13.185Z,36.82
2018-05-06T15:59:39.386Z,36.65
2018-05-06T16:02:17.499Z,36.47
2018-05-06T16:04:43.288Z,36.66
2018-05-06T16:07:09.052Z,36.60
2018-05-06T16:09:34.815Z,36.64
2018-05-06T16:12:00.604Z,36.49
2018-05-06T16:14:26.347Z,36.72
2018-05-06T16:16:52.107Z,36.59
2018-05-06T16:19:17.859Z,36.93
2018-05-06T16:21:43.645Z,37.05
2018-05-06T16:24:09.390Z,37.00
2018-05-06T16:26:35.230Z,37.18
2018-05-06T16:29:00.932Z,36.83
2018-05-06T16:31:26.707Z,36.48
2018-05-06T16:33:52.452Z,36.60
2018-05-06T16:36:18.244Z,36.61
2018-05-06T16:38:44.002Z,36.43
2018-05-06T16:41:09.768Z,36.52
2018-05-06T16:43:35.546Z,36.36
2018-05-06T16:46:01.359Z,36.59
2018-05-06T16:48:27.148Z,36.64
2018-05-06T16:50:52.894Z,36.81
2018-05-06T16:53:18.832Z,36.67
2018-05-06T16:55:44.569Z,36.62
2018-05-06T16:58:10.368Z,36.91
2018-05-06T17:00:36.305Z,37.00
2018-05-06T17:03:02.153Z,36.93
2018-05-06T17:05:27.910Z,37.39
2018-05-06T17:07:53.735Z,37.01
2018-05-06T17:10:19.495Z,37.00
2018-05-06T17:12:45.325Z,36.85
2018-05-06T17:15:11.047Z,37.19
2018-05-06T17:17:36.823Z,37.20
2018-05-06T17:20:11.690Z,37.22
2018-05-06T17:22:37.475Z,37.30
2018-05-06T17:25:03.243Z,37.29
2018-05-06T17:27:28.996Z,37.26
2018-05-06T17:29:54.779Z,36.90
2018-05-06T17:32:20.531Z,37.16
2018-05-06T17:34:46.314Z,37.45
2018-05-06T17:37:12.060Z,37.75
2018-05-06T17:39:37.839Z,37.51
2018-05-06T17:42:03.615Z,37.30
2018-05-06T17:44:29.372Z,37.32
2018-05-06T17:46:55.116Z,37.46
2018-05-06T17:49:20.923Z,37.45
2018-05-06T17:51:46.672Z,37.36
2018-05-06T17:54:12.487Z,37.47
2018-05-06T17:56:38.266Z,37.62
2018-05-06T17:59:04.307Z,37.92
2018-05-06T18:01:30.079Z,38.18
2018-05-06T18:03:55.836Z,38.24
2018-05-06T18:06:21.631Z,38.42
2018-05-06T18:08:47.388Z,38.69
2018-05-06T18:11:13.143Z,38.93
2018-05-06T18:13:38.902Z,39.00
2018-05-06T18:16:04.671Z,39.13
2018-05-06T18:18:30.451Z,39.35
2018-05-06T18:20:56.233Z,39.43
2018-05-06T18:23:21.976Z,39.70
2018-05-06T18:25:47.731Z,39.71
2018-05-06T18:28:13.516Z,40.00
2018-05-06T18:30:39.286Z,40.21
2018-05-06T18:33:05.056Z,40.42
2018-05-06T18:35:30.840Z,40.99
2018-05-06T18:37:56.604Z,41.20
2018-05-06T18:40:22.455Z,41.28
2018-05-06T18:42:48.248Z,41.38
2018-05-06T18:45:14.033Z,41.56
2018-05-06T18:47:39.813Z,41.81
2018-05-06T18:50:05.574Z,42.04
2018-05-06T18:52:31.435Z,42.32
2018-05-06T18:54:57.208Z,42.61
2018-05-06T18:57:23.026Z,43.10
2018-05-06T18:59:48.953Z,43.37
2018-05-06T19:02:14.700Z,43.57
2018-05-06T19:04:40.548Z,44.04
2018-05-06T19:07:06.320Z,44.04
2018-05-06T19:09:32.079Z,44.66
2018-05-06T19:11:57.853Z,44.89
2018-05-06T19:14:23.605Z,45.32
2018-05-06T19:16:49.383Z,45.25
2018-05-06T19:19:15.172Z,45.63
2018-05-06T19:21:40.918Z,45.81
2018-05-06T19:24:06.656Z,46.20
2018-05-06T19:26:32.463Z,46.36
2018-05-06T19:28:58.215Z,46.62
2018-05-06T19:31:23.989Z,46.95
2018-05-06T19:33:49.731Z,47.01
2018-05-06T19:36:15.775Z,47.19
2018-05-06T19:38:41.549Z,47.39
2018-05-06T19:41:07.331Z,47.62
2018-05-06T19:43:33.099Z,47.90
2018-05-06T19:45:58.863Z,48.20
2018-05-06T19:48:24.639Z,48.44
2018-05-06T19:50:50.384Z,48.87
2018-05-06T19:53:16.136Z,49.13
2018-05-06T19:55:41.895Z,49.71
2018-05-06T19:58:07.677Z,50.01
2018-05-06T20:00:33.822Z,50.06
2018-05-06T20:02:59.600Z,50.35
2018-05-06T20:05:25.379Z,50.11
2018-05-06T20:07:51.143Z,50.29
2018-05-06T20:10:16.912Z,50.33
2018-05-06T20:12:42.675Z,50.50
2018-05-06T20:15:08.441Z,50.65
2018-05-06T20:17:34.212Z,50.85
2018-05-06T20:20:00.009Z,51.03
2018-05-06T20:22:26.023Z,51.36
2018-05-06T20:24:51.943Z,51.53
2018-05-06T20:27:17.866Z,51.74
2018-05-06T20:29:43.675Z,52.04
2018-05-06T20:32:09.454Z,52.11
2018-05-06T20:34:35.206Z,52.53
2018-05-06T20:37:01.005Z,53.01
2018-05-06T20:39:27.142Z,53.20
2018-05-06T20:41:52.937Z,53.33
2018-05-06T20:44:18.675Z,53.62
2018-05-06T20:46:44.467Z,53.79
2018-05-06T20:49:10.216Z,54.02
2018-05-06T20:51:35.996Z,54.35
2018-05-06T20:54:01.760Z,54.60
2018-05-06T20:56:27.541Z,54.86
2018-05-06T20:58:53.293Z,55.19
2018-05-06T21:01:19.078Z,55.47
2018-05-06T21:03:44.828Z,55.76
2018-05-06T21:06:10.633Z,56.18
2018-05-06T21:08:36.427Z,56.38
2018-05-06T21:11:02.219Z,56.50
2018-05-06T21:13:27.968Z,56.62
2018-05-06T21:15:53.935Z,56.73
2018-05-06T21:18:19.695Z,56.86
2018-05-06T21:20:45.450Z,56.96
2018-05-06T21:23:11.231Z,57.11
2018-05-06T21:25:36.987Z,57.31
2018-05-06T21:28:02.774Z,57.38
2018-05-06T21:30:28.522Z,57.66
2018-05-06T21:32:54.306Z,57.98
2018-05-06T21:35:20.050Z,58.16
2018-05-06T21:37:45.862Z,58.34
2018-05-06T21:40:11.571Z,58.67
2018-05-06T21:42:37.635Z,58.78
2018-05-06T21:45:03.395Z,58.97
2018-05-06T21:47:29.173Z,59.04
2018-05-06T21:49:54.931Z,59.14
2018-05-06T21:52:20.700Z,59.42
2018-05-06T21:54:46.467Z,59.89
2018-05-06T21:57:12.233Z,60.21
2018-05-06T21:59:38.215Z,60.43
2018-05-06T22:02:03.974Z,60.55
2018-05-06T22:04:29.743Z,60.83
2018-05-06T22:06:55.508Z,60.95
2018-05-06T22:09:21.255Z,61.14
2018-05-06T22:11:47.032Z,61.35
2018-05-06T22:14:12.791Z,61.55
2018-05-06T22:16:38.548Z,61.55
2018-05-06T22:19:04.331Z,61.64
2018-05-06T22:21:30.095Z,61.53
2018-05-06T22:23:55.851Z,61.40
2018-05-06T22:26:21.606Z,61.43
2018-05-06T22:28:47.375Z,61.45
2018-05-06T22:31:13.163Z,61.37
2018-05-06T22:33:38.965Z,61.29
2018-05-06T22:36:04.725Z,61.31
2018-05-06T22:38:30.503Z,61.38
2018-05-06T22:40:56.265Z,61.38
2018-05-06T22:43:22.048Z,61.32
2018-05-06T22:45:47.798Z,61.25
2018-05-06T22:48:13.567Z,61.25
2018-05-06T22:50:39.325Z,61.34
2018-05-06T22:53:05.118Z,61.39
2018-05-06T22:55:30.907Z,61.44
2018-05-06T22:57:56.681Z,61.50
2018-05-06T23:00:22.497Z,61.71
2018-05-06T23:02:48.340Z,61.73
2018-05-06T23:05:14.104Z,61.85
2018-05-06T23:07:39.870Z,62.04
2018-05-06T23:10:05.634Z,62.16
2018-05-06T23:12:31.625Z,62.23
2018-05-06T23:14:57.397Z,62.49
2018-05-06T23:17:23.157Z,62.58
2018-05-06T23:19:48.927Z,62.66
2018-05-06T23:22:14.699Z,62.91
2018-05-06T23:24:40.456Z,62.98
2018-05-06T23:27:06.227Z,63.01
2018-05-06T23:29:32.327Z,63.12
2018-05-06T23:31:58.103Z,63.08
2018-05-06T23:34:23.872Z,63.24
2018-05-06T23:36:49.655Z,63.47
2018-05-06T23:39:15.439Z,63.52
2018-05-06T23:41:41.192Z,63.68
2018-05-06T23:44:06.959Z,63.87
2018-05-06T23:46:32.729Z,64.06
2018-05-06T23:48:58.511Z,64.07
2018-05-06T23:51:24.281Z,64.05
2018-05-06T23:53:50.056Z,64.14
2018-05-06T23:56:15.829Z,64.42
2018-05-06T23:58:41.609Z,64.39
